createdAt,value
2022-11-16T00:00:49.997Z,1.50
2022-11-16T00:03:17.110Z,1.20
2022-11-16T00:05:43.918Z,1.20
2022-11-16T00:08:10.857Z,1.30
2022-11-16T00:10:37.695Z,1.50
2022-11-16T00:13:04.541Z,1.45
2022-11-16T00:15:31.347Z,1.70
2022-11-16T00:17:58.155Z,1.85
2022-11-16T00:20:25.129Z,1.38
2022-11-16T00:22:51.996Z,1.33
2022-11-16T00:25:19.358Z,1.20
2022-11-16T00:27:46.237Z,1.30
2022-11-16T00:30:13.455Z,1.45
2022-11-16T00:32:40.371Z,1.13
2022-11-16T00:35:07.909Z,1.10
2022-11-16T00:37:35.111Z,1.40
2022-11-16T00:40:01.889Z,1.15
2022-11-16T00:42:29.074Z,1.63
2022-11-16T00:44:56.025Z,1.52
2022-11-16T00:47:23.074Z,1.10
2022-11-16T00:49:50.105Z,1.70
2022-11-16T00:52:17.555Z,1.35
2022-11-16T00:54:44.676Z,1.20
2022-11-16T00:57:12.461Z,1.00
2022-11-16T00:59:44.462Z,1.10
2022-11-16T01:02:15.105Z,0.98
2022-11-16T01:04:42.272Z,1.00
2022-11-16T01:07:09.246Z,0.90
2022-11-16T01:09:36.202Z,0.90
2022-11-16T01:12:08.824Z,0.98
2022-11-16T01:14:44.281Z,0.95
2022-11-16T01:17:12.214Z,0.82
2022-11-16T01:19:39.417Z,1.40
2022-11-16T01:22:07.093Z,0.90
2022-11-16T01:24:38.534Z,1.00
2022-11-16T01:27:05.455Z,0.90
2022-11-16T01:29:35.414Z,1.10
2022-11-16T01:32:02.333Z,1.38
2022-11-16T01:34:29.126Z,1.00
2022-11-16T01:37:03.575Z,1.10
2022-11-16T01:39:33.642Z,0.90
2022-11-16T01:42:02.813Z,0.90
2022-11-16T01:44:32.971Z,1.10
2022-11-16T01:47:14.722Z,1.20
2022-11-16T01:49:44.528Z,1.20
2022-11-16T01:52:13.520Z,1.40
2022-11-16T01:54:43.198Z,1.20
2022-11-16T01:57:14.088Z,1.25
2022-11-16T01:59:48.180Z,1.25
2022-11-16T02:02:19.297Z,1.30
2022-11-16T02:04:46.604Z,1.20
2022-11-16T02:10:45.702Z,1.50
2022-11-16T02:14:01.108Z,1.60
2022-11-16T02:16:51.757Z,1.85
2022-11-16T02:20:02.560Z,1.10
2022-11-16T02:22:44.662Z,1.75
2022-11-16T02:25:21.097Z,1.63
2022-11-16T02:28:08.800Z,1.40
2022-11-16T02:30:35.635Z,1.40
2022-11-16T02:33:05.825Z,1.35
2022-11-16T02:35:36.997Z,1.40
2022-11-16T02:38:15.518Z,1.35
2022-11-16T02:40:55.062Z,1.25
2022-11-16T02:43:29.848Z,1.77
2022-11-16T02:46:01.637Z,1.38
2022-11-16T02:48:37.945Z,1.23
2022-11-16T02:51:06.473Z,1.50
2022-11-16T02:53:37.439Z,1.35
2022-11-16T02:56:04.450Z,1.27
2022-11-16T02:58:31.847Z,1.40
2022-11-16T03:01:08.352Z,1.25
2022-11-16T03:03:53.173Z,1.30
2022-11-16T03:06:31.304Z,1.20
2022-11-16T03:09:16.481Z,1.02
2022-11-16T03:12:02.488Z,1.60
2022-11-16T03:14:45.828Z,1.30
2022-11-16T03:17:38.460Z,1.37
2022-11-16T03:20:05.590Z,1.48
2022-11-16T03:22:45.369Z,1.30
2022-11-16T03:25:14.892Z,1.20
2022-11-16T03:28:11.198Z,1.10
2022-11-16T03:30:41.000Z,1.30
2022-11-16T03:33:18.642Z,1.23
2022-11-16T03:36:05.454Z,1.13
2022-11-16T03:38:33.761Z,1.25
2022-11-16T03:41:04.474Z,1.13
2022-11-16T03:43:31.467Z,2.03
2022-11-16T03:45:59.809Z,1.40
2022-11-16T03:48:34.375Z,1.30
2022-11-16T03:51:03.952Z,1.10
2022-11-16T03:53:31.071Z,1.30
2022-11-16T03:55:57.933Z,1.23
2022-11-16T03:58:27.023Z,1.52
2022-11-16T04:00:55.832Z,1.27
2022-11-16T04:03:22.713Z,1.55
2022-11-16T04:06:08.873Z,1.15
2022-11-16T04:08:54.975Z,1.00
2022-11-16T04:11:41.337Z,1.00
2022-11-16T04:14:38.496Z,1.33
2022-11-16T04:17:32.682Z,0.93
2022-11-16T04:20:18.060Z,1.00
2022-11-16T04:23:20.297Z,0.90
2022-11-16T04:25:47.230Z,0.90
2022-11-16T04:28:16.865Z,0.90
2022-11-16T04:31:10.995Z,1.00
2022-11-16T04:33:58.784Z,1.00
2022-11-16T04:36:45.256Z,1.55
2022-11-16T04:39:12.347Z,1.02
2022-11-16T04:41:58.290Z,0.88
2022-11-16T04:44:47.820Z,0.98
2022-11-16T04:47:14.763Z,0.90
2022-11-16T04:49:41.614Z,1.00
2022-11-16T04:52:08.948Z,0.90
2022-11-16T04:54:40.863Z,0.80
2022-11-16T04:57:08.955Z,0.90
2022-11-16T04:59:36.020Z,1.00
2022-11-16T05:02:09.301Z,0.90
2022-11-16T05:04:44.513Z,0.90
2022-11-16T05:07:13.587Z,0.80
2022-11-16T05:09:43.825Z,1.10
2022-11-16T05:12:14.910Z,1.00
2022-11-16T05:14:43.409Z,0.90
2022-11-16T05:17:10.805Z,1.15
2022-11-16T05:19:56.202Z,0.90
2022-11-16T05:22:25.130Z,1.83
2022-11-16T05:24:53.465Z,1.10
2022-11-16T05:27:21.067Z,1.00
2022-11-16T05:29:49.717Z,1.08
2022-11-16T05:32:19.588Z,1.40
2022-11-16T05:34:47.160Z,1.00
2022-11-16T05:37:15.285Z,1.10
2022-11-16T05:39:43.378Z,1.00
2022-11-16T05:42:10.599Z,1.05
2022-11-16T05:44:37.831Z,1.40
2022-11-16T05:47:04.882Z,1.20
2022-11-16T05:49:32.801Z,0.93
2022-11-16T05:51:59.780Z,1.70
2022-11-16T05:54:27.961Z,1.30
2022-11-16T05:56:55.278Z,1.10
2022-11-16T05:59:23.394Z,1.00
2022-11-16T06:01:53.743Z,1.40
2022-11-16T06:04:24.829Z,1.20
2022-11-16T06:06:53.780Z,1.40
2022-11-16T06:09:20.808Z,1.20
2022-11-16T06:11:49.220Z,1.10
2022-11-16T06:14:16.349Z,1.20
2022-11-16T06:16:43.807Z,1.10
2022-11-16T06:19:11.239Z,1.15
2022-11-16T06:21:38.335Z,1.40
2022-11-16T06:24:10.498Z,1.30
2022-11-16T06:26:37.729Z,1.40
2022-11-16T06:29:05.672Z,1.17
2022-11-16T06:31:34.267Z,1.20
2022-11-16T06:34:02.964Z,1.25
2022-11-16T06:36:29.926Z,1.25
2022-11-16T06:39:01.141Z,1.33
2022-11-16T06:41:30.120Z,1.30
2022-11-16T06:43:57.072Z,1.50
2022-11-16T06:46:30.513Z,1.58
2022-11-16T06:48:57.772Z,1.77
2022-11-16T06:51:25.375Z,1.13
2022-11-16T06:53:52.873Z,1.20
2022-11-16T06:56:21.161Z,1.20
2022-11-16T06:58:56.271Z,1.38
2022-11-16T07:01:25.012Z,1.65
2022-11-16T07:03:57.770Z,1.40
2022-11-16T07:06:25.456Z,1.40
2022-11-16T07:08:52.296Z,1.35
2022-11-16T07:11:24.149Z,1.40
2022-11-16T07:13:54.120Z,1.35
2022-11-16T07:16:22.300Z,1.40
2022-11-16T07:18:56.599Z,1.50
2022-11-16T07:21:24.268Z,1.58
2022-11-16T07:23:53.315Z,1.80
2022-11-16T07:26:21.532Z,1.50
2022-11-16T07:28:53.799Z,1.42
2022-11-16T07:31:22.607Z,1.45
2022-11-16T07:34:09.396Z,1.52
2022-11-16T07:36:53.762Z,1.42
2022-11-16T07:39:21.883Z,1.98
2022-11-16T07:41:50.483Z,1.58
2022-11-16T07:44:26.778Z,1.42
2022-11-16T07:47:05.760Z,1.92
2022-11-16T07:49:33.960Z,1.55
2022-11-16T07:52:10.144Z,1.40
2022-11-16T07:54:57.704Z,1.20
2022-11-16T07:57:27.378Z,1.42
2022-11-16T07:59:56.733Z,1.50
2022-11-16T08:02:23.964Z,1.40
2022-11-16T08:04:51.870Z,1.77
2022-11-16T08:07:23.716Z,1.50
2022-11-16T08:09:55.460Z,1.40
2022-11-16T08:12:22.904Z,1.55
2022-11-16T08:14:49.797Z,1.52
2022-11-16T08:17:16.668Z,1.20
2022-11-16T08:19:44.237Z,1.10
2022-11-16T08:22:14.337Z,1.10
2022-11-16T08:24:42.153Z,1.10
2022-11-16T08:27:15.458Z,1.00
2022-11-16T08:29:44.514Z,1.20
2022-11-16T08:32:11.546Z,1.15
2022-11-16T08:34:38.460Z,1.13
2022-11-16T08:37:06.043Z,1.45
2022-11-16T08:39:39.434Z,1.02
2022-11-16T08:42:06.381Z,1.20
2022-11-16T08:44:33.268Z,1.15
2022-11-16T08:47:04.422Z,1.30
2022-11-16T08:49:39.426Z,1.10
2022-11-16T08:52:07.363Z,1.30
2022-11-16T08:54:35.120Z,1.00
2022-11-16T08:57:01.985Z,1.30
2022-11-16T08:59:31.117Z,1.15
2022-11-16T09:02:03.581Z,1.30
2022-11-16T09:04:35.682Z,1.20
2022-11-16T09:07:04.083Z,1.40
2022-11-16T09:09:30.998Z,1.10
2022-11-16T09:11:57.944Z,1.17
2022-11-16T09:14:25.245Z,1.20
2022-11-16T09:16:52.332Z,1.10
2022-11-16T09:19:20.456Z,1.10
2022-11-16T09:21:47.677Z,1.20
2022-11-16T09:24:14.701Z,1.20
2022-11-16T09:26:41.751Z,1.45
2022-11-16T09:29:11.868Z,1.45
2022-11-16T09:31:38.764Z,1.35
2022-11-16T09:34:05.767Z,1.50
2022-11-16T09:36:32.842Z,1.20
2022-11-16T09:39:29.955Z,1.10
2022-11-16T09:42:37.941Z,1.23
2022-11-16T09:45:08.902Z,1.20
2022-11-16T09:47:41.825Z,1.40
2022-11-16T09:50:12.832Z,1.58
2022-11-16T09:52:44.690Z,1.33
2022-11-16T09:55:38.709Z,1.40
2022-11-16T09:58:11.977Z,1.15
2022-11-16T10:00:40.525Z,1.17
2022-11-16T10:03:11.399Z,1.38
2022-11-16T10:05:59.497Z,1.45
2022-11-16T10:08:35.839Z,1.30
2022-11-16T10:11:31.909Z,1.20
2022-11-16T10:14:26.599Z,1.48
2022-11-16T10:17:05.700Z,1.60
2022-11-16T10:19:45.358Z,1.50
2022-11-16T10:22:42.016Z,1.10
2022-11-16T10:25:24.227Z,1.80
2022-11-16T10:29:06.285Z,1.27
2022-11-16T10:31:41.981Z,1.30
2022-11-16T10:34:08.969Z,1.15
2022-11-16T10:36:35.990Z,1.50
2022-11-16T10:39:03.161Z,1.20
2022-11-16T10:41:37.532Z,1.73
2022-11-16T10:44:17.946Z,1.33
2022-11-16T10:46:48.109Z,1.60
2022-11-16T10:49:36.322Z,1.63
2022-11-16T10:52:03.225Z,1.70
2022-11-16T10:54:30.063Z,1.52
2022-11-16T10:57:14.119Z,1.60
2022-11-16T10:59:48.464Z,1.33
2022-11-16T11:02:31.324Z,2.05
2022-11-16T11:05:05.834Z,1.75
2022-11-16T11:07:39.906Z,1.60
2022-11-16T11:10:30.003Z,1.35
2022-11-16T11:13:12.266Z,1.30
2022-11-16T11:15:40.175Z,1.70
2022-11-16T11:18:27.783Z,1.33
2022-11-16T11:21:07.933Z,1.20
2022-11-16T11:24:29.658Z,1.33
2022-11-16T11:26:54.401Z,1.50
2022-11-16T11:29:35.037Z,1.50
2022-11-16T11:32:08.296Z,1.73
2022-11-16T11:34:45.970Z,1.50
2022-11-16T11:37:17.609Z,1.40
2022-11-16T11:39:44.877Z,1.60
2022-11-16T11:42:15.007Z,1.50
2022-11-16T11:44:58.854Z,1.42
2022-11-16T11:47:57.204Z,1.20
2022-11-16T11:50:49.651Z,1.30
2022-11-16T11:53:45.788Z,1.27
2022-11-16T11:56:12.903Z,1.45
2022-11-16T11:58:40.498Z,1.30
2022-11-16T12:01:33.572Z,1.00
2022-11-16T12:04:35.415Z,1.40
2022-11-16T12:07:59.146Z,1.70
2022-11-16T12:10:25.960Z,1.20
2022-11-16T12:13:27.177Z,1.30
2022-11-16T12:16:23.239Z,2.80
2022-11-16T12:19:33.267Z,1.38
2022-11-16T12:22:25.451Z,1.33
2022-11-16T12:25:17.007Z,1.60
2022-11-16T12:28:05.482Z,1.80
2022-11-16T12:30:33.904Z,1.48
2022-11-16T12:33:31.714Z,1.50
2022-11-16T12:36:02.440Z,1.60
2022-11-16T12:38:30.404Z,1.40
2022-11-16T12:41:15.989Z,1.40
2022-11-16T12:44:03.425Z,1.40
2022-11-16T12:46:47.973Z,1.30
2022-11-16T12:49:33.601Z,1.40
2022-11-16T12:52:38.103Z,1.40
2022-11-16T12:55:28.286Z,1.70
2022-11-16T12:58:07.403Z,1.40
2022-11-16T13:00:51.785Z,1.63
2022-11-16T13:03:18.756Z,1.50
2022-11-16T13:05:53.905Z,1.70
2022-11-16T13:08:38.015Z,1.48
2022-11-16T13:11:16.086Z,1.52
2022-11-16T13:13:45.713Z,1.40
2022-11-16T13:16:17.362Z,1.48
2022-11-16T13:18:44.486Z,1.92
2022-11-16T13:21:37.679Z,1.83
2022-11-16T13:24:13.959Z,2.38
2022-11-16T13:26:48.824Z,2.13
2022-11-16T13:29:37.215Z,1.77
2022-11-16T13:32:32.043Z,2.03
2022-11-16T13:34:59.479Z,1.90
2022-11-16T13:37:52.858Z,1.73
2022-11-16T13:40:30.792Z,1.60
2022-11-16T13:43:10.761Z,1.65
2022-11-16T13:45:52.858Z,1.73
2022-11-16T13:48:25.506Z,1.73
2022-11-16T13:50:55.949Z,1.77
2022-11-16T13:56:16.075Z,1.90
2022-11-16T13:58:48.574Z,1.48
2022-11-16T14:01:16.218Z,1.67
2022-11-16T14:03:46.839Z,2.25
2022-11-16T14:06:13.840Z,2.15
2022-11-16T14:08:40.678Z,1.92
2022-11-16T14:11:30.424Z,2.05
2022-11-16T14:14:00.892Z,1.65
2022-11-16T14:16:32.183Z,1.80
2022-11-16T14:19:00.435Z,1.88
2022-11-16T14:21:46.345Z,1.80
2022-11-16T14:24:36.083Z,1.70
2022-11-16T14:27:21.265Z,1.98
2022-11-16T14:30:09.712Z,1.70
2022-11-16T14:32:43.809Z,1.65
2022-11-16T14:35:27.886Z,2.10
2022-11-16T14:38:04.619Z,1.88
2022-11-16T14:40:43.257Z,1.73
2022-11-16T14:43:20.745Z,2.33
2022-11-16T14:45:48.947Z,2.28
2022-11-16T14:48:17.463Z,2.22
2022-11-16T14:50:45.239Z,1.83
2022-11-16T14:53:17.906Z,2.45
2022-11-16T14:55:47.583Z,2.17
2022-11-16T14:58:18.403Z,2.33
2022-11-16T15:01:02.435Z,1.95
2022-11-16T15:03:31.818Z,2.58
2022-11-16T15:06:00.250Z,2.55
2022-11-16T15:08:37.947Z,2.35
2022-11-16T15:11:07.607Z,2.63
2022-11-16T15:13:34.858Z,2.47
2022-11-16T15:16:16.171Z,2.30
2022-11-16T15:18:58.989Z,2.42
2022-11-16T15:21:29.360Z,2.50
2022-11-16T15:26:43.389Z,3.30
2022-11-16T15:29:16.176Z,3.05
2022-11-16T15:31:43.105Z,2.70
2022-11-16T15:34:19.460Z,3.10
2022-11-16T15:36:46.661Z,2.50
2022-11-16T15:39:19.578Z,2.38
2022-11-16T15:41:48.920Z,2.58
2022-11-16T15:44:18.247Z,2.80
2022-11-16T15:46:47.283Z,2.33
2022-11-16T15:49:32.689Z,2.63
2022-11-16T15:51:59.838Z,4.03
2022-11-16T15:54:27.689Z,3.90
2022-11-16T15:56:56.524Z,3.60
2022-11-16T15:59:31.871Z,4.38
2022-11-16T16:01:58.837Z,6.00
2022-11-16T16:04:25.758Z,4.60
2022-11-16T16:06:52.918Z,4.28
2022-11-16T16:09:28.125Z,4.38
2022-11-16T16:12:15.097Z,3.90
2022-11-16T16:14:42.049Z,3.72
2022-11-16T16:17:09.233Z,4.00
2022-11-16T16:19:39.099Z,3.33
2022-11-16T16:22:07.147Z,3.17
2022-11-16T16:24:38.617Z,3.75
2022-11-16T16:27:17.378Z,3.40
2022-11-16T16:29:51.086Z,3.92
2022-11-16T16:32:31.271Z,3.20
2022-11-16T16:34:59.457Z,2.97
2022-11-16T16:37:27.315Z,3.72
2022-11-16T16:39:54.412Z,3.33
2022-11-16T16:42:21.629Z,3.92
2022-11-16T16:44:48.675Z,3.60
2022-11-16T16:47:16.175Z,3.75
2022-11-16T16:49:43.070Z,3.30
2022-11-16T16:52:14.243Z,3.80
2022-11-16T16:54:41.571Z,4.18
2022-11-16T16:57:18.243Z,4.22
2022-11-16T16:59:45.796Z,3.95
2022-11-16T17:02:13.153Z,3.92
2022-11-16T17:04:40.680Z,4.38
2022-11-16T17:07:07.653Z,4.00
2022-11-16T17:09:34.592Z,3.58
2022-11-16T17:12:01.685Z,3.50
2022-11-16T17:14:28.568Z,3.80
2022-11-16T17:16:55.480Z,4.45
2022-11-16T17:19:23.857Z,4.82
2022-11-16T17:21:53.527Z,3.30
2022-11-16T17:24:20.695Z,2.90
2022-11-16T17:26:50.690Z,3.63
2022-11-16T17:29:17.551Z,3.17
2022-11-16T17:31:47.029Z,3.20
2022-11-16T17:34:14.324Z,3.60
2022-11-16T17:36:42.137Z,4.25
2022-11-16T17:39:09.325Z,3.85
2022-11-16T17:41:36.140Z,4.20
2022-11-16T17:44:03.169Z,3.40
2022-11-16T17:46:30.153Z,3.13
2022-11-16T17:48:57.159Z,2.75
2022-11-16T17:51:25.118Z,2.50
2022-11-16T17:53:52.597Z,3.22
2022-11-16T17:56:21.132Z,2.55
2022-11-16T17:58:50.049Z,3.15
2022-11-16T18:01:17.212Z,2.47
2022-11-16T18:03:44.581Z,2.50
2022-11-16T18:06:13.513Z,2.95
2022-11-16T18:08:40.919Z,2.88
2022-11-16T18:11:09.716Z,4.22
2022-11-16T18:13:37.282Z,4.53
2022-11-16T18:16:18.051Z,3.63
2022-11-16T18:18:45.816Z,2.90
2022-11-16T18:21:18.901Z,2.53
2022-11-16T18:23:47.264Z,2.50
2022-11-16T18:26:15.879Z,2.60
2022-11-16T18:28:45.171Z,2.72
2022-11-16T18:31:13.389Z,2.55
2022-11-16T18:33:40.275Z,2.70
2022-11-16T18:36:07.468Z,2.20
2022-11-16T18:38:34.707Z,2.03
2022-11-16T18:41:13.870Z,3.20
2022-11-16T18:43:41.873Z,2.00
2022-11-16T18:46:08.680Z,2.35
2022-11-16T18:48:35.642Z,2.35
2022-11-16T18:51:03.272Z,1.92
2022-11-16T18:53:30.435Z,2.33
2022-11-16T18:56:00.183Z,2.25
2022-11-16T19:01:16.047Z,2.30
2022-11-16T19:03:43.136Z,2.00
2022-11-16T19:06:10.171Z,1.92
2022-11-16T19:08:41.361Z,2.05
2022-11-16T19:11:14.543Z,2.10
2022-11-16T19:13:42.378Z,1.92
2022-11-16T19:16:09.817Z,2.92
2022-11-16T19:18:36.922Z,2.00
2022-11-16T19:21:10.788Z,1.80
2022-11-16T19:23:48.244Z,1.95
2022-11-16T19:26:16.408Z,1.55
2022-11-16T19:28:47.097Z,2.10
2022-11-16T19:31:15.398Z,1.85
2022-11-16T19:33:42.532Z,1.83
2022-11-16T19:36:30.530Z,1.70
2022-11-16T19:38:57.444Z,2.08
2022-11-16T19:41:24.543Z,2.42
2022-11-16T19:43:59.040Z,1.92
2022-11-16T19:46:30.651Z,2.42
2022-11-16T19:48:57.872Z,1.90
2022-11-16T19:51:26.366Z,1.85
2022-11-16T19:53:53.448Z,2.60
2022-11-16T19:56:21.194Z,2.05
2022-11-16T19:58:48.623Z,2.00
2022-11-16T20:01:20.342Z,1.90
2022-11-16T20:03:48.257Z,1.92
2022-11-16T20:06:19.803Z,2.00
2022-11-16T20:08:48.403Z,1.85
2022-11-16T20:11:25.905Z,1.85
2022-11-16T20:13:54.030Z,1.85
2022-11-16T20:16:23.343Z,1.92
2022-11-16T20:18:50.924Z,2.03
2022-11-16T20:21:28.864Z,2.00
2022-11-16T20:24:00.255Z,1.92
2022-11-16T20:26:31.504Z,1.70
2022-11-16T20:28:58.671Z,1.90
2022-11-16T20:31:27.118Z,1.90
2022-11-16T20:33:58.704Z,1.77
2022-11-16T20:36:27.940Z,1.65
2022-11-16T20:38:54.936Z,1.88
2022-11-16T20:41:26.256Z,1.70
2022-11-16T20:43:54.493Z,1.67
2022-11-16T20:46:23.548Z,1.50
2022-11-16T20:48:54.517Z,1.85
2022-11-16T20:51:21.905Z,1.73
2022-11-16T20:53:49.473Z,1.75
2022-11-16T20:56:19.966Z,1.23
2022-11-16T20:58:48.551Z,1.05
2022-11-16T21:01:16.577Z,1.10
2022-11-16T21:03:47.573Z,1.35
2022-11-16T21:06:14.706Z,0.90
2022-11-16T21:08:41.867Z,1.00
2022-11-16T21:11:18.858Z,1.13
2022-11-16T21:14:04.853Z,1.20
2022-11-16T21:16:32.331Z,1.60
2022-11-16T21:18:59.311Z,1.30
2022-11-16T21:21:26.397Z,1.70
2022-11-16T21:23:54.925Z,1.60
2022-11-16T21:26:23.863Z,2.00
2022-11-16T21:28:50.923Z,2.05
2022-11-16T21:31:19.888Z,1.83
2022-11-16T21:33:47.550Z,1.52
2022-11-16T21:36:18.730Z,2.13
2022-11-16T21:38:46.071Z,2.00
2022-11-16T21:41:14.221Z,2.10
2022-11-16T21:43:41.360Z,2.50
2022-11-16T21:46:19.172Z,2.15
2022-11-16T21:48:47.919Z,1.98
2022-11-16T21:51:16.449Z,2.90
2022-11-16T21:53:43.598Z,2.38
2022-11-16T21:56:17.594Z,2.20
2022-11-16T21:58:44.745Z,2.70
2022-11-16T22:01:12.036Z,2.78
2022-11-16T22:03:38.999Z,2.42
2022-11-16T22:06:25.276Z,3.00
2022-11-16T22:08:52.714Z,2.35
2022-11-16T22:11:22.485Z,2.50
2022-11-16T22:13:49.728Z,2.40
2022-11-16T22:16:20.937Z,2.95
2022-11-16T22:18:47.831Z,2.88
2022-11-16T22:21:15.006Z,2.58
2022-11-16T22:23:42.073Z,2.75
2022-11-16T22:26:10.908Z,2.60
2022-11-16T22:28:38.076Z,2.65
2022-11-16T22:31:14.969Z,4.07
2022-11-16T22:33:42.131Z,3.28
2022-11-16T22:36:13.476Z,3.00
2022-11-16T22:38:40.348Z,3.60
2022-11-16T22:41:09.460Z,3.80
2022-11-16T22:43:39.444Z,4.10
2022-11-16T22:46:06.644Z,3.55
2022-11-16T22:48:38.084Z,3.92
2022-11-16T22:51:06.893Z,4.53
2022-11-16T22:53:34.617Z,4.40
2022-11-16T22:56:06.404Z,4.57
2022-11-16T22:58:33.516Z,4.47
2022-11-16T23:01:00.612Z,4.82
2022-11-16T23:03:27.871Z,5.00
2022-11-16T23:05:54.755Z,5.10
2022-11-16T23:08:24.863Z,5.18
2022-11-16T23:11:37.911Z,5.15
2022-11-16T23:14:24.519Z,4.38
2022-11-16T23:16:51.711Z,3.90
2022-11-16T23:19:38.282Z,4.88
2022-11-16T23:22:24.481Z,4.78
2022-11-16T23:25:10.552Z,4.80
2022-11-16T23:27:52.398Z,4.47
2022-11-16T23:30:19.500Z,3.92
2022-11-16T23:32:47.085Z,4.10
2022-11-16T23:35:14.046Z,4.40
2022-11-16T23:38:09.929Z,3.75
2022-11-16T23:40:39.908Z,3.65
2022-11-16T23:43:26.194Z,4.32
2022-11-16T23:45:53.088Z,4.15
2022-11-16T23:48:19.997Z,4.47
2022-11-16T23:50:47.158Z,3.33
2022-11-16T23:53:14.442Z,3.95
2022-11-16T23:55:41.359Z,2.65
2022-11-16T23:58:13.065Z,2.80
